createdAt,value
2023-05-20T00:00:20.226Z,68.26
2023-05-20T00:01:20.164Z,69.11
2023-05-20T00:02:19.415Z,66.13
2023-05-20T00:03:20.271Z,69.97
2023-05-20T00:04:19.327Z,68.93
2023-05-20T00:05:19.228Z,69.36
2023-05-20T00:06:19.347Z,69.56
2023-05-20T00:07:19.483Z,71.53
2023-05-20T00:08:19.380Z,67.84
2023-05-20T00:09:19.505Z,66.91
2023-05-20T00:10:20.432Z,68.23
2023-05-20T00:11:20.453Z,69.85
2023-05-20T00:12:19.583Z,64.83
2023-05-20T00:13:20.614Z,69.44
2023-05-20T00:14:20.487Z,69.25
2023-05-20T00:15:19.516Z,70.01
2023-05-20T00:16:20.571Z,67.88
2023-05-20T00:17:19.564Z,68.98
2023-05-20T00:18:19.585Z,66.80
2023-05-20T00:19:20.664Z,66.69
2023-05-20T00:20:19.617Z,66.45
2023-05-20T00:21:19.666Z,66.09
2023-05-20T00:22:20.691Z,64.28
2023-05-20T00:23:19.787Z,70.96
2023-05-20T00:24:19.740Z,67.11
2023-05-20T00:25:19.918Z,66.06
2023-05-20T00:26:20.933Z,70.35
2023-05-20T00:27:20.942Z,71.19
2023-05-20T00:28:20.903Z,72.66
2023-05-20T00:29:19.840Z,67.60
2023-05-20T00:30:19.885Z,70.20
2023-05-20T00:31:20.047Z,71.81
2023-05-20T00:32:21.175Z,63.34
2023-05-20T00:33:21.087Z,68.43
2023-05-20T00:34:21.021Z,70.26
2023-05-20T00:35:21.012Z,68.46
2023-05-20T00:36:20.034Z,70.85
2023-05-20T00:37:20.283Z,70.74
2023-05-20T00:38:20.225Z,68.69
2023-05-20T00:39:21.193Z,68.60
2023-05-20T00:40:20.212Z,68.80
2023-05-20T00:41:20.227Z,72.21
2023-05-20T00:42:20.205Z,69.81
2023-05-20T00:43:20.183Z,69.84
2023-05-20T00:44:20.240Z,69.46
2023-05-20T00:45:20.263Z,66.08
2023-05-20T00:46:21.304Z,66.57
2023-05-20T00:47:20.299Z,66.81
2023-05-20T00:48:20.460Z,68.27
2023-05-20T00:49:20.369Z,68.09
2023-05-20T00:50:20.431Z,70.95
2023-05-20T00:51:21.383Z,69.55
2023-05-20T00:52:21.438Z,66.40
2023-05-20T00:53:20.442Z,67.86
2023-05-20T00:54:21.485Z,68.18
2023-05-20T00:55:21.497Z,70.18
2023-05-20T00:56:20.504Z,66.22
2023-05-20T00:57:20.563Z,67.03
2023-05-20T00:58:20.722Z,68.76
2023-05-20T00:59:21.572Z,67.98
2023-05-20T01:00:20.685Z,65.26
2023-05-20T01:01:20.914Z,65.65
2023-05-20T01:02:21.892Z,65.41
2023-05-20T01:03:21.038Z,66.85
2023-05-20T01:04:22.058Z,67.56
2023-05-20T01:05:21.133Z,69.23
2023-05-20T01:06:21.998Z,69.18
2023-05-20T01:07:21.943Z,66.27
2023-05-20T01:08:21.861Z,67.91
2023-05-20T01:09:21.015Z,67.55
2023-05-20T01:10:20.944Z,71.25
2023-05-20T01:11:21.910Z,70.68
2023-05-20T01:12:22.207Z,68.84
2023-05-20T01:13:22.013Z,66.64
2023-05-20T01:14:21.143Z,66.89
2023-05-20T01:15:21.232Z,70.22
2023-05-20T01:16:22.159Z,65.63
2023-05-20T01:17:22.211Z,67.48
2023-05-20T01:18:22.418Z,68.44
2023-05-20T01:19:21.406Z,66.48
2023-05-20T01:20:21.284Z,66.93
2023-05-20T01:21:22.329Z,65.59
2023-05-20T01:22:21.339Z,65.59
2023-05-20T01:23:21.474Z,68.71
2023-05-20T01:24:21.592Z,69.29
2023-05-20T01:25:22.430Z,70.64
2023-05-20T01:26:21.454Z,64.68
2023-05-20T01:27:21.526Z,67.06
2023-05-20T01:28:22.491Z,69.29
2023-05-20T01:29:21.563Z,67.92
2023-05-20T01:30:21.728Z,65.48
2023-05-20T01:31:21.768Z,64.62
2023-05-20T01:32:22.930Z,68.29
2023-05-20T01:33:21.751Z,67.41
2023-05-20T01:34:21.732Z,70.31
2023-05-20T01:35:21.922Z,65.86
2023-05-20T01:36:21.850Z,66.49
2023-05-20T01:37:21.824Z,67.52
2023-05-20T01:38:23.117Z,67.74
2023-05-20T01:39:22.921Z,66.89
2023-05-20T01:40:21.945Z,67.46
2023-05-20T01:41:22.944Z,68.76
2023-05-20T01:42:22.974Z,68.55
2023-05-20T01:43:22.117Z,64.08
2023-05-20T01:44:22.055Z,69.48
2023-05-20T01:45:23.350Z,67.42
2023-05-20T01:46:22.301Z,67.72
2023-05-20T01:47:22.177Z,68.37
2023-05-20T01:48:22.435Z,70.45
2023-05-20T01:49:22.477Z,70.49
2023-05-20T01:50:23.551Z,69.51
2023-05-20T01:51:23.537Z,71.28
2023-05-20T01:52:23.530Z,70.59
2023-05-20T01:53:23.372Z,69.57
2023-05-20T01:54:23.500Z,69.55
2023-05-20T01:55:22.483Z,69.12
2023-05-20T01:56:22.520Z,67.50
2023-05-20T01:57:22.569Z,69.07
2023-05-20T01:58:22.557Z,68.14
2023-05-20T01:59:23.588Z,67.81
2023-05-20T02:00:22.630Z,66.54
2023-05-20T02:01:22.786Z,68.96
2023-05-20T02:02:23.770Z,71.59
2023-05-20T02:03:22.813Z,64.18
2023-05-20T02:04:22.749Z,68.39
2023-05-20T02:05:23.084Z,67.84
2023-05-20T02:06:22.947Z,66.41
2023-05-20T02:07:23.921Z,67.25
2023-05-20T02:08:24.130Z,63.47
2023-05-20T02:09:22.976Z,71.08
2023-05-20T02:10:24.083Z,70.41
2023-05-20T02:11:24.009Z,65.62
2023-05-20T02:12:24.094Z,72.19
2023-05-20T02:13:24.220Z,65.02
2023-05-20T02:14:23.085Z,68.14
2023-05-20T02:15:24.123Z,68.83
2023-05-20T02:16:23.389Z,67.85
2023-05-20T02:17:24.280Z,70.31
2023-05-20T02:18:23.310Z,69.29
2023-05-20T02:19:23.583Z,67.14
2023-05-20T02:20:24.327Z,66.49
2023-05-20T02:21:24.612Z,67.12
2023-05-20T02:22:23.562Z,69.66
2023-05-20T02:23:23.466Z,68.06
2023-05-20T02:24:23.728Z,67.57
2023-05-20T02:25:24.580Z,65.10
2023-05-20T02:26:24.601Z,68.94
2023-05-20T02:27:24.844Z,69.50
2023-05-20T02:28:24.630Z,66.76
2023-05-20T02:29:24.662Z,67.25
2023-05-20T02:30:24.710Z,69.83
2023-05-20T02:31:24.755Z,68.36
2023-05-20T02:32:24.745Z,65.96
2023-05-20T02:33:24.807Z,63.82
2023-05-20T02:34:25.101Z,68.94
2023-05-20T02:35:24.019Z,62.80
2023-05-20T02:36:23.950Z,63.82
2023-05-20T02:37:23.929Z,66.05
2023-05-20T02:38:23.993Z,67.49
2023-05-20T02:39:24.039Z,68.50
2023-05-20T02:40:24.241Z,67.16
2023-05-20T02:41:24.093Z,65.45
2023-05-20T02:42:25.145Z,64.60
2023-05-20T02:43:25.149Z,66.95
2023-05-20T02:44:25.215Z,70.88
2023-05-20T02:45:25.416Z,69.05
2023-05-20T02:46:25.273Z,63.98
2023-05-20T02:47:25.397Z,67.08
2023-05-20T02:48:25.371Z,68.85
2023-05-20T02:49:24.401Z,68.63
2023-05-20T02:50:24.482Z,68.75
2023-05-20T02:51:25.503Z,65.66
2023-05-20T02:52:25.577Z,63.84
2023-05-20T02:53:24.532Z,65.62
2023-05-20T02:54:25.598Z,66.12
2023-05-20T02:55:24.621Z,64.38
2023-05-20T02:56:24.749Z,66.41
2023-05-20T02:57:25.752Z,66.33
2023-05-20T02:58:25.773Z,67.93
2023-05-20T02:59:25.774Z,65.96
2023-05-20T03:00:25.804Z,65.00
2023-05-20T03:01:26.051Z,67.07
2023-05-20T03:02:25.939Z,65.15
2023-05-20T03:03:24.894Z,63.43
2023-05-20T03:04:25.019Z,67.09
2023-05-20T03:05:25.911Z,66.13
2023-05-20T03:06:25.938Z,63.27
2023-05-20T03:07:25.110Z,64.51
2023-05-20T03:08:26.181Z,61.58
2023-05-20T03:09:26.051Z,65.13
2023-05-20T03:10:25.076Z,67.02
2023-05-20T03:11:25.108Z,64.46
2023-05-20T03:12:25.121Z,64.47
2023-05-20T03:13:25.156Z,61.79
2023-05-20T03:14:26.255Z,66.30
2023-05-20T03:15:26.313Z,66.12
2023-05-20T03:16:25.410Z,63.45
2023-05-20T03:17:25.588Z,66.12
2023-05-20T03:18:25.359Z,66.17
2023-05-20T03:19:26.466Z,66.36
2023-05-20T03:20:25.479Z,64.68
2023-05-20T03:21:25.483Z,65.69
2023-05-20T03:22:26.581Z,65.82
2023-05-20T03:23:25.512Z,65.40
2023-05-20T03:24:25.544Z,64.34
2023-05-20T03:25:25.892Z,65.39
2023-05-20T03:26:26.577Z,65.71
2023-05-20T03:27:26.615Z,66.63
2023-05-20T03:28:25.763Z,66.31
2023-05-20T03:29:25.656Z,65.06
2023-05-20T03:30:26.850Z,63.98
2023-05-20T03:31:25.913Z,60.56
2023-05-20T03:32:25.915Z,63.19
2023-05-20T03:33:25.937Z,66.30
2023-05-20T03:34:26.802Z,62.37
2023-05-20T03:35:26.883Z,63.96
2023-05-20T03:36:26.948Z,64.88
2023-05-20T03:37:25.930Z,62.91
2023-05-20T03:38:26.007Z,66.14
2023-05-20T03:39:26.102Z,63.21
2023-05-20T03:40:26.101Z,64.63
2023-05-20T03:41:26.372Z,63.65
2023-05-20T03:42:27.349Z,62.63
2023-05-20T03:43:26.255Z,63.45
2023-05-20T03:44:27.203Z,63.26
2023-05-20T03:45:26.499Z,63.03
2023-05-20T03:46:26.368Z,65.70
2023-05-20T03:47:26.287Z,66.06
2023-05-20T03:48:26.249Z,65.96
2023-05-20T03:49:27.446Z,64.44
2023-05-20T03:50:26.462Z,63.22
2023-05-20T03:51:27.306Z,64.87
2023-05-20T03:52:27.329Z,65.83
2023-05-20T03:53:27.554Z,63.42
2023-05-20T03:54:26.613Z,66.13
2023-05-20T03:55:26.496Z,63.64
2023-05-20T03:56:26.576Z,63.12
2023-05-20T03:57:26.685Z,61.86
2023-05-20T03:58:26.578Z,65.15
2023-05-20T03:59:27.708Z,63.31
2023-05-20T04:00:26.732Z,65.32
2023-05-20T04:01:27.682Z,62.05
2023-05-20T04:02:26.933Z,61.92
2023-05-20T04:03:26.877Z,64.08
2023-05-20T04:04:27.643Z,65.42
2023-05-20T04:05:26.707Z,65.33
2023-05-20T04:06:27.766Z,64.13
2023-05-20T04:07:27.625Z,62.57
2023-05-20T04:08:26.684Z,59.61
2023-05-20T04:09:27.685Z,59.78
2023-05-20T04:10:26.680Z,63.21
2023-05-20T04:11:26.707Z,61.04
2023-05-20T04:12:26.933Z,63.78
2023-05-20T04:13:27.744Z,61.55
2023-05-20T04:14:26.847Z,63.67
2023-05-20T04:15:26.836Z,58.02
2023-05-20T04:16:26.960Z,61.66
2023-05-20T04:17:26.797Z,63.40
2023-05-20T04:18:27.751Z,61.94
2023-05-20T04:19:26.803Z,62.65
2023-05-20T04:20:26.727Z,63.09
2023-05-20T04:21:26.978Z,59.46
2023-05-20T04:22:26.778Z,60.61
2023-05-20T04:23:26.729Z,60.35
2023-05-20T04:24:27.755Z,62.04
2023-05-20T04:25:27.792Z,59.76
2023-05-20T04:26:27.792Z,63.16
2023-05-20T04:27:26.794Z,60.54
2023-05-20T04:28:26.929Z,60.36
2023-05-20T04:29:26.995Z,60.90
2023-05-20T04:30:28.119Z,61.81
2023-05-20T04:31:27.928Z,61.46
2023-05-20T04:32:27.886Z,58.96
2023-05-20T04:33:27.920Z,58.47
2023-05-20T04:34:27.030Z,59.41
2023-05-20T04:35:27.050Z,62.08
2023-05-20T04:36:27.919Z,59.19
2023-05-20T04:37:27.921Z,62.14
2023-05-20T04:38:29.605Z,60.12
2023-05-20T04:39:26.891Z,60.65
2023-05-20T04:40:28.002Z,62.03
2023-05-20T04:41:26.912Z,66.37
2023-05-20T04:42:27.071Z,60.33
2023-05-20T04:43:27.938Z,63.32
2023-05-20T04:44:27.990Z,59.94
2023-05-20T04:45:26.875Z,65.35
2023-05-20T04:46:26.939Z,62.26
2023-05-20T04:47:26.971Z,59.22
2023-05-20T04:48:27.917Z,63.32
2023-05-20T04:49:26.854Z,62.79
2023-05-20T04:50:27.833Z,63.48
2023-05-20T04:51:28.070Z,59.19
2023-05-20T04:52:26.795Z,62.19
2023-05-20T04:53:26.848Z,60.50
2023-05-20T04:54:26.806Z,64.20
2023-05-20T04:55:26.784Z,60.50
2023-05-20T04:56:27.774Z,60.77
2023-05-20T04:57:26.948Z,61.80
2023-05-20T04:58:26.762Z,62.38
2023-05-20T04:59:27.814Z,62.12
2023-05-20T05:00:26.953Z,61.90
2023-05-20T05:01:27.001Z,65.07
2023-05-20T05:02:26.797Z,60.33
2023-05-20T05:03:27.764Z,64.79
2023-05-20T05:04:27.823Z,59.73
2023-05-20T05:05:26.959Z,63.92
2023-05-20T05:06:27.053Z,58.15
2023-05-20T05:07:26.777Z,62.18
2023-05-20T05:08:26.899Z,58.74
2023-05-20T05:09:27.737Z,63.60
2023-05-20T05:10:27.685Z,64.23
2023-05-20T05:11:27.673Z,58.02
2023-05-20T05:12:26.763Z,63.41
2023-05-20T05:13:26.759Z,64.07
2023-05-20T05:14:26.657Z,64.10
2023-05-20T05:15:26.675Z,64.52
2023-05-20T05:16:26.789Z,61.11
2023-05-20T05:17:27.826Z,61.06
2023-05-20T05:18:26.765Z,60.87
2023-05-20T05:19:27.906Z,63.34
2023-05-20T05:20:27.838Z,62.61
2023-05-20T05:21:27.914Z,63.99
2023-05-20T05:22:27.924Z,65.86
2023-05-20T05:23:26.936Z,65.42
2023-05-20T05:24:26.970Z,62.05
2023-05-20T05:25:28.025Z,58.52
2023-05-20T05:26:28.237Z,67.13
2023-05-20T05:27:28.074Z,63.22
2023-05-20T05:28:28.237Z,64.71
2023-05-20T05:29:28.314Z,64.27
2023-05-20T05:30:27.206Z,67.07
2023-05-20T05:31:28.212Z,65.57
2023-05-20T05:32:27.476Z,64.86
2023-05-20T05:33:27.378Z,63.51
2023-05-20T05:34:28.355Z,66.08
2023-05-20T05:35:28.435Z,62.87
2023-05-20T05:36:28.528Z,67.30
2023-05-20T05:37:28.513Z,63.65
2023-05-20T05:38:28.652Z,61.55
2023-05-20T05:39:28.555Z,64.43
2023-05-20T05:40:27.634Z,61.74
2023-05-20T05:41:27.740Z,66.41
2023-05-20T05:42:28.768Z,64.97
2023-05-20T05:43:27.726Z,63.30
2023-05-20T05:44:28.774Z,60.04
2023-05-20T05:45:28.782Z,65.19
2023-05-20T05:46:28.973Z,65.97
2023-05-20T05:47:28.969Z,67.21
2023-05-20T05:48:28.841Z,66.23
2023-05-20T05:49:27.901Z,64.82
2023-05-20T05:50:29.016Z,62.18
2023-05-20T05:51:29.142Z,66.22
2023-05-20T05:52:28.027Z,63.32
2023-05-20T05:53:28.007Z,66.27
2023-05-20T05:54:29.132Z,68.72
2023-05-20T05:55:28.082Z,64.10
2023-05-20T05:56:28.327Z,65.72
2023-05-20T05:57:28.155Z,65.91
2023-05-20T05:58:28.207Z,65.50
2023-05-20T05:59:29.333Z,66.69
2023-05-20T06:00:29.515Z,63.76
2023-05-20T06:01:28.430Z,66.39
2023-05-20T06:02:29.716Z,64.43
2023-05-20T06:03:28.654Z,67.34
2023-05-20T06:04:28.601Z,64.78
2023-05-20T06:05:29.912Z,64.98
2023-05-20T06:06:28.716Z,64.25
2023-05-20T06:07:29.526Z,62.51
2023-05-20T06:08:28.532Z,66.21
2023-05-20T06:09:29.694Z,64.54
2023-05-20T06:10:28.839Z,63.58
2023-05-20T06:11:28.757Z,68.04
2023-05-20T06:12:28.731Z,70.80
2023-05-20T06:13:29.783Z,64.27
2023-05-20T06:14:28.811Z,65.94
2023-05-20T06:15:28.729Z,66.98
2023-05-20T06:16:30.016Z,66.56
2023-05-20T06:17:28.841Z,68.95
2023-05-20T06:18:29.797Z,66.60
2023-05-20T06:19:29.071Z,68.31
2023-05-20T06:20:29.843Z,66.62
2023-05-20T06:21:30.027Z,69.41
2023-05-20T06:22:29.997Z,66.56
2023-05-20T06:23:29.040Z,64.42
2023-05-20T06:24:29.052Z,67.77
2023-05-20T06:25:29.025Z,68.29
2023-05-20T06:26:30.062Z,66.23
2023-05-20T06:27:29.043Z,65.15
2023-05-20T06:28:30.093Z,66.58
2023-05-20T06:29:30.124Z,68.49
2023-05-20T06:30:29.382Z,64.61
2023-05-20T06:31:29.290Z,66.44
2023-05-20T06:32:30.368Z,66.75
2023-05-20T06:33:30.335Z,68.88
2023-05-20T06:34:30.255Z,67.57
2023-05-20T06:35:29.408Z,65.00
2023-05-20T06:36:31.204Z,67.86
2023-05-20T06:37:30.376Z,69.09
2023-05-20T06:38:29.325Z,73.69
2023-05-20T06:39:30.532Z,68.27
2023-05-20T06:40:29.337Z,68.76
2023-05-20T06:41:29.299Z,67.78
2023-05-20T06:42:29.321Z,70.12
2023-05-20T06:43:29.353Z,69.21
2023-05-20T06:44:29.283Z,67.90
2023-05-20T06:45:29.289Z,68.17
2023-05-20T06:46:30.409Z,68.06
2023-05-20T06:47:29.391Z,67.76
2023-05-20T06:48:29.317Z,72.73
2023-05-20T06:49:30.270Z,67.94
2023-05-20T06:50:30.246Z,70.63
2023-05-20T06:51:30.263Z,68.26
2023-05-20T06:52:29.501Z,70.19
2023-05-20T06:53:30.221Z,67.64
2023-05-20T06:54:29.208Z,68.17
2023-05-20T06:55:29.358Z,70.70
2023-05-20T06:56:29.364Z,67.98
2023-05-20T06:57:29.224Z,67.71
2023-05-20T06:58:29.263Z,72.27
2023-05-20T06:59:29.183Z,67.82
2023-05-20T07:00:29.253Z,65.83
2023-05-20T07:01:29.335Z,70.35
2023-05-20T07:02:29.455Z,66.69
2023-05-20T07:03:30.478Z,68.60
2023-05-20T07:04:30.629Z,68.22
2023-05-20T07:05:30.660Z,69.60
2023-05-20T07:06:29.726Z,68.15
2023-05-20T07:07:29.777Z,69.79
2023-05-20T07:08:30.792Z,65.70
2023-05-20T07:09:29.987Z,71.34
2023-05-20T07:10:30.113Z,69.92
2023-05-20T07:11:30.004Z,68.92
2023-05-20T07:12:31.009Z,69.96
2023-05-20T07:13:30.068Z,69.39
2023-05-20T07:14:31.133Z,73.88
2023-05-20T07:15:31.191Z,69.14
2023-05-20T07:16:30.405Z,73.01
2023-05-20T07:17:31.430Z,71.40
2023-05-20T07:18:30.460Z,71.51
2023-05-20T07:19:31.654Z,71.54
2023-05-20T07:20:30.609Z,70.52
2023-05-20T07:21:30.532Z,67.68
2023-05-20T07:22:31.633Z,71.48
2023-05-20T07:23:30.760Z,69.89
2023-05-20T07:24:31.716Z,71.10
2023-05-20T07:25:32.101Z,71.50
2023-05-20T07:26:31.030Z,68.97
2023-05-20T07:27:31.868Z,66.84
2023-05-20T07:28:32.018Z,68.96
2023-05-20T07:29:31.148Z,69.93
2023-05-20T07:30:31.271Z,70.26
2023-05-20T07:31:32.303Z,73.80
2023-05-20T07:32:32.245Z,70.69
2023-05-20T07:33:31.340Z,74.87
2023-05-20T07:34:31.257Z,70.48
2023-05-20T07:35:31.482Z,71.73
2023-05-20T07:36:32.476Z,73.04
2023-05-20T07:37:32.460Z,68.89
2023-05-20T07:38:31.472Z,71.90
2023-05-20T07:39:32.625Z,73.73
2023-05-20T07:40:32.048Z,69.57
2023-05-20T07:41:32.631Z,69.42
2023-05-20T07:42:31.671Z,70.52
2023-05-20T07:43:32.775Z,70.48
2023-05-20T07:44:31.940Z,73.26
2023-05-20T07:45:33.216Z,70.11
2023-05-20T07:46:33.090Z,73.20
2023-05-20T07:47:32.922Z,69.85
2023-05-20T07:48:33.059Z,70.91
2023-05-20T07:49:32.154Z,69.51
2023-05-20T07:50:32.115Z,71.78
2023-05-20T07:51:32.276Z,71.46
2023-05-20T07:52:44.130Z,71.24
2023-05-20T07:53:33.180Z,71.56
2023-05-20T07:54:33.275Z,72.46
2023-05-20T07:55:33.324Z,73.43
2023-05-20T07:56:32.335Z,74.42
2023-05-20T07:57:33.130Z,75.27
2023-05-20T07:58:32.021Z,75.25
2023-05-20T07:59:32.167Z,71.53
2023-05-20T08:00:32.024Z,72.57
2023-05-20T08:01:33.044Z,75.00
2023-05-20T08:02:33.095Z,75.77
2023-05-20T08:03:33.063Z,74.94
2023-05-20T08:04:33.106Z,75.11
2023-05-20T08:05:33.220Z,76.88
2023-05-20T08:06:32.286Z,74.21
2023-05-20T08:07:33.172Z,77.88
2023-05-20T08:08:31.965Z,73.97
2023-05-20T08:09:32.111Z,73.33
2023-05-20T08:10:31.982Z,74.74
2023-05-20T08:11:31.936Z,74.98
2023-05-20T08:12:32.951Z,78.04
2023-05-20T08:13:32.978Z,75.64
2023-05-20T08:14:32.909Z,78.53
2023-05-20T08:15:33.232Z,77.46
2023-05-20T08:16:32.079Z,74.11
2023-05-20T08:17:32.106Z,73.44
2023-05-20T08:18:32.149Z,74.70
2023-05-20T08:19:33.257Z,74.68
2023-05-20T08:20:33.177Z,75.72
2023-05-20T08:21:32.229Z,78.53
2023-05-20T08:22:33.333Z,74.37
2023-05-20T08:23:35.896Z,75.27
2023-05-20T08:24:33.408Z,75.35
2023-05-20T08:25:32.584Z,76.07
2023-05-20T08:26:32.360Z,77.75
2023-05-20T08:27:33.280Z,76.77
2023-05-20T08:28:33.346Z,75.92
2023-05-20T08:29:32.319Z,76.65
2023-05-20T08:30:32.264Z,78.55
2023-05-20T08:31:33.408Z,76.12
2023-05-20T08:32:33.300Z,76.07
2023-05-20T08:33:32.283Z,71.82
2023-05-20T08:34:32.274Z,78.08
2023-05-20T08:35:32.421Z,75.23
2023-05-20T08:36:33.264Z,73.09
2023-05-20T08:37:32.291Z,72.40
2023-05-20T08:41:17.823Z,25.00
2023-05-20T08:42:18.764Z,25.00
2023-05-20T08:43:18.786Z,25.00
2023-05-20T08:44:18.634Z,25.00
2023-05-20T08:45:17.623Z,25.00
2023-05-20T08:46:18.570Z,25.00
2023-05-20T08:47:17.739Z,25.00
2023-05-20T08:48:17.899Z,25.00
2023-05-20T08:49:17.848Z,24.13
2023-05-20T08:50:17.833Z,29.47
2023-05-20T08:51:18.868Z,27.00
2023-05-20T08:54:48.139Z,25.00
2023-05-20T08:55:48.265Z,25.00
2023-05-20T08:56:49.183Z,25.00
2023-05-20T08:57:48.043Z,25.00
2023-05-20T08:58:48.122Z,25.00
2023-05-20T08:59:48.048Z,28.72
2023-05-20T09:00:48.098Z,26.03
2023-05-20T09:01:49.018Z,28.86
2023-05-20T09:02:48.098Z,28.63
2023-05-20T09:03:47.985Z,27.48
2023-05-20T09:04:48.074Z,26.95
2023-05-20T09:05:48.025Z,29.68
2023-05-20T09:06:49.014Z,27.68
2023-05-20T09:07:47.962Z,25.21
2023-05-20T09:08:49.145Z,28.97
2023-05-20T09:09:47.963Z,27.97
2023-05-20T09:10:48.005Z,28.62
2023-05-20T09:11:48.966Z,26.65
2023-05-20T09:12:48.043Z,26.49
2023-05-20T09:13:47.909Z,28.68
2023-05-20T09:14:49.005Z,28.43
2023-05-20T09:15:47.956Z,26.32
2023-05-20T09:16:48.009Z,28.70
2023-05-20T09:17:48.006Z,29.60
2023-05-20T09:18:48.994Z,28.87
2023-05-20T09:19:48.067Z,33.78
2023-05-20T09:20:48.921Z,29.33
2023-05-20T09:21:48.010Z,32.97
2023-05-20T09:22:48.093Z,34.17
2023-05-20T09:23:48.102Z,32.48
2023-05-20T09:24:47.981Z,31.32
2023-05-20T09:25:47.853Z,30.81
2023-05-20T09:26:47.839Z,31.21
2023-05-20T09:27:48.961Z,25.71
2023-05-20T09:28:47.865Z,29.87
2023-05-20T09:29:47.881Z,30.13
2023-05-20T09:30:48.980Z,33.83
2023-05-20T09:31:48.946Z,27.06
2023-05-20T09:32:47.903Z,32.63
2023-05-20T09:33:48.780Z,33.63
2023-05-20T09:34:48.784Z,26.09
2023-05-20T09:35:47.948Z,28.22
2023-05-20T09:36:48.985Z,32.91
2023-05-20T09:37:48.795Z,28.67
2023-05-20T09:38:48.756Z,31.30
2023-05-20T09:39:47.804Z,29.22
2023-05-20T09:40:47.775Z,31.49
2023-05-20T09:41:48.831Z,30.04
2023-05-20T09:42:48.747Z,34.25
2023-05-20T09:43:48.942Z,31.95
2023-05-20T09:44:48.820Z,29.81
2023-05-20T09:45:48.739Z,31.49
2023-05-20T09:46:47.708Z,32.99
2023-05-20T09:47:47.789Z,32.99
2023-05-20T09:48:48.680Z,31.43
2023-05-20T09:49:48.896Z,30.56
2023-05-20T09:50:48.674Z,28.37
2023-05-20T09:51:48.663Z,37.48
2023-05-20T09:52:47.668Z,31.84
2023-05-20T09:53:48.697Z,36.32
2023-05-20T09:54:47.791Z,31.14
2023-05-20T09:55:47.704Z,30.13
2023-05-20T09:56:48.829Z,31.23
2023-05-20T09:57:48.626Z,29.72
2023-05-20T09:58:47.658Z,27.00
2023-05-20T09:59:47.624Z,32.06
2023-05-20T10:00:47.670Z,28.26
2023-05-20T10:01:48.994Z,28.38
2023-05-20T10:02:48.004Z,32.75
2023-05-20T10:03:47.714Z,30.97
2023-05-20T10:04:48.722Z,34.57
2023-05-20T10:05:48.638Z,33.38
2023-05-20T10:06:47.563Z,32.42
2023-05-20T10:07:47.669Z,31.32
2023-05-20T10:08:47.662Z,33.13
2023-05-20T10:09:47.712Z,28.68
2023-05-20T10:10:47.542Z,32.80
2023-05-20T10:11:47.579Z,29.07
2023-05-20T10:12:47.594Z,31.03
2023-05-20T10:13:47.566Z,28.16
2023-05-20T10:14:47.563Z,32.20
2023-05-20T10:15:47.768Z,26.34
2023-05-20T10:16:48.585Z,30.75
2023-05-20T10:17:47.627Z,30.91
2023-05-20T10:18:47.682Z,30.87
2023-05-20T10:19:48.605Z,28.41
2023-05-20T10:20:48.638Z,34.34
2023-05-20T10:21:48.848Z,34.96
2023-05-20T10:22:47.759Z,30.70
2023-05-20T10:23:48.860Z,36.12
2023-05-20T10:24:48.877Z,32.39
2023-05-20T10:25:47.894Z,32.17
2023-05-20T10:26:47.790Z,32.31
2023-05-20T10:27:47.695Z,29.92
2023-05-20T10:28:48.727Z,31.75
2023-05-20T10:30:47.733Z,30.80
2023-05-20T10:31:47.748Z,28.12
2023-05-20T10:32:48.817Z,29.53
2023-05-20T10:33:47.803Z,29.02
2023-05-20T10:34:47.816Z,30.67
2023-05-20T10:35:48.792Z,31.31
2023-05-20T10:36:47.824Z,30.09
2023-05-20T10:37:48.809Z,29.94
2023-05-20T10:38:48.874Z,28.66
2023-05-20T10:39:48.839Z,29.06
2023-05-20T10:40:47.928Z,32.44
2023-05-20T10:41:47.991Z,34.66
2023-05-20T10:42:47.859Z,30.99
2023-05-20T10:43:48.882Z,30.21
2023-05-20T10:44:47.901Z,29.27
2023-05-20T10:45:48.868Z,30.95
2023-05-20T10:47:03.838Z,27.81
2023-05-20T10:47:49.012Z,28.03
2023-05-20T10:48:48.081Z,28.88
2023-05-20T10:49:48.904Z,28.44
2023-05-20T10:50:47.937Z,31.23
2023-05-20T10:51:48.892Z,28.71
2023-05-20T10:52:48.868Z,30.60
2023-05-20T10:53:47.932Z,32.49
2023-05-20T10:54:50.861Z,32.41
2023-05-20T10:55:47.950Z,32.44
2023-05-20T10:56:47.868Z,32.25
2023-05-20T10:57:47.876Z,29.23
2023-05-20T10:58:48.819Z,33.67
2023-05-20T10:59:47.797Z,33.94
2023-05-20T11:00:50.721Z,30.75
2023-05-20T11:01:48.774Z,31.05
2023-05-20T11:02:48.832Z,31.54
2023-05-20T11:03:48.799Z,32.57
2023-05-20T11:04:47.863Z,34.11
2023-05-20T11:05:47.769Z,31.88
2023-05-20T11:06:48.810Z,35.46
2023-05-20T11:07:47.758Z,29.79
2023-05-20T11:08:47.749Z,30.91
2023-05-20T11:09:48.710Z,34.41
2023-05-20T11:10:48.715Z,29.36
2023-05-20T11:11:47.774Z,34.53
2023-05-20T11:12:48.910Z,27.06
2023-05-20T11:13:48.729Z,28.82
2023-05-20T11:14:48.819Z,28.46
2023-05-20T11:15:47.836Z,30.47
2023-05-20T11:16:48.758Z,31.34
2023-05-20T11:17:49.089Z,33.29
2023-05-20T11:18:48.751Z,36.16
2023-05-20T11:19:48.698Z,30.82
2023-05-20T11:20:47.678Z,30.17
2023-05-20T11:21:47.728Z,28.73
2023-05-20T11:22:48.864Z,29.55
2023-05-20T11:23:47.771Z,30.30
2023-05-20T11:24:47.628Z,31.47
2023-05-20T11:25:47.673Z,30.22
2023-05-20T11:26:47.618Z,31.19
2023-05-20T11:27:47.595Z,29.17
2023-05-20T11:28:47.586Z,29.21
2023-05-20T11:29:47.614Z,29.92
2023-05-20T11:30:47.575Z,32.25
2023-05-20T11:31:48.678Z,33.71
2023-05-20T11:32:47.598Z,31.17
2023-05-20T11:33:47.542Z,29.04
2023-05-20T11:34:47.554Z,30.43
2023-05-20T11:35:47.636Z,30.33
2023-05-20T11:36:48.552Z,28.82
2023-05-20T11:37:47.623Z,28.47
2023-05-20T11:38:47.671Z,29.03
2023-05-20T11:39:48.510Z,33.25
2023-05-20T11:40:51.018Z,31.81
2023-05-20T11:41:48.504Z,31.99
2023-05-20T11:42:47.487Z,32.17
2023-05-20T11:43:48.648Z,31.78
2023-05-20T11:44:48.475Z,33.06
2023-05-20T11:45:48.576Z,35.49
2023-05-20T11:46:47.500Z,31.29
2023-05-20T11:47:47.516Z,31.29
2023-05-20T11:48:47.573Z,28.40
2023-05-20T11:49:48.443Z,29.62
2023-05-20T11:50:48.481Z,30.98
2023-05-20T11:51:47.420Z,27.99
2023-05-20T11:52:47.550Z,31.01
2023-05-20T11:53:48.402Z,30.99
2023-05-20T11:54:47.389Z,28.79
2023-05-20T11:55:48.522Z,34.46
2023-05-20T11:56:48.396Z,29.17
2023-05-20T11:57:48.437Z,28.42
2023-05-20T11:58:48.513Z,33.75
2023-05-20T11:59:48.359Z,29.93
2023-05-20T12:00:54.782Z,30.71
2023-05-20T12:01:48.554Z,31.10
2023-05-20T12:02:47.428Z,32.07
2023-05-20T12:03:48.518Z,31.97
2023-05-20T12:04:48.473Z,33.48
2023-05-20T12:05:47.380Z,32.73
2023-05-20T12:06:48.532Z,32.86
2023-05-20T12:07:47.354Z,35.72
2023-05-20T12:08:48.305Z,30.59
2023-05-20T12:09:47.332Z,31.06
2023-05-20T12:10:48.383Z,32.55
2023-05-20T12:11:48.409Z,33.45
2023-05-20T12:12:48.295Z,34.02
2023-05-20T12:13:48.297Z,33.13
2023-05-20T12:14:48.325Z,30.86
2023-05-20T12:15:47.402Z,29.62
2023-05-20T12:16:47.259Z,31.62
2023-05-20T12:17:48.348Z,27.24
2023-05-20T12:18:47.288Z,31.77
2023-05-20T12:19:48.384Z,28.44
2023-05-20T12:20:47.328Z,36.15
2023-05-20T12:21:47.241Z,33.39
2023-05-20T12:22:48.296Z,29.77
2023-05-20T12:23:48.240Z,33.73
2023-05-20T12:24:48.198Z,32.50
2023-05-20T12:25:48.335Z,30.33
2023-05-20T12:26:47.171Z,30.76
2023-05-20T12:27:48.355Z,27.14
2023-05-20T12:28:47.167Z,33.13
2023-05-20T12:29:47.417Z,27.44
2023-05-20T12:30:47.164Z,28.56
2023-05-20T12:31:48.162Z,31.64
2023-05-20T12:32:48.166Z,25.00
2023-05-20T12:33:48.463Z,30.58
2023-05-20T12:34:48.113Z,31.17
2023-05-20T12:35:48.116Z,29.98
2023-05-20T12:36:47.302Z,30.67
2023-05-20T12:37:48.408Z,26.75
2023-05-20T12:38:47.161Z,28.69
2023-05-20T12:39:47.204Z,28.89
2023-05-20T12:40:48.340Z,31.38
2023-05-20T12:41:48.391Z,30.84
2023-05-20T12:42:48.328Z,25.00
2023-05-20T12:43:47.217Z,28.39
2023-05-20T12:44:47.202Z,27.45
2023-05-20T12:45:47.218Z,27.34
2023-05-20T12:46:48.234Z,28.14
2023-05-20T12:47:48.283Z,27.56
2023-05-20T12:48:47.359Z,26.71
2023-05-20T12:49:47.516Z,28.67
2023-05-20T12:50:47.259Z,27.33
2023-05-20T12:51:47.399Z,31.55
2023-05-20T12:52:47.511Z,30.39
2023-05-20T12:53:47.292Z,33.90
2023-05-20T12:54:47.280Z,29.76
2023-05-20T12:55:48.295Z,27.92
2023-05-20T12:56:48.301Z,28.48
2023-05-20T12:57:47.499Z,30.35
2023-05-20T12:58:48.419Z,29.22